Time;durP1;ratioP1;P1;durP2;ratioP2;P2;SDS_P1;SDS_P2;PMS_P1;PMS_P2;Temp;Humidity;BMP_temperature;BMP_pressure;BME280_temperature;BME280_humidity;BME280_pressure;Samples;Min_cycle;Max_cycle;Signal;HPM_P1;HPM_P2
2023/08/15 00:02:13;;;;;;;7.13;3.25;;;19.00;99.90;;;;;;5091436;28;20044;-60
2023/08/15 00:04:39;;;;;;;10.63;3.60;;;19.00;99.90;;;;;;5091692;28;20090;-61
2023/08/15 00:07:04;;;;;;;5.03;3.45;;;18.90;99.90;;;;;;5105077;28;20032;-61
2023/08/15 00:09:31;;;;;;;9.25;4.18;;;19.00;99.90;;;;;;5110737;28;20043;-61
2023/08/15 00:11:57;;;;;;;5.63;3.30;;;18.90;99.90;;;;;;5111955;28;20039;-61
2023/08/15 00:14:22;;;;;;;6.28;3.90;;;18.90;99.90;;;;;;5111987;28;20443;-61
2023/08/15 00:16:48;;;;;;;7.53;4.47;;;18.80;99.90;;;;;;5112044;28;20027;-60
2023/08/15 00:19:13;;;;;;;5.70;3.85;;;18.80;99.90;;;;;;5111825;28;20465;-60
2023/08/15 00:21:39;;;;;;;10.40;4.68;;;18.80;99.90;;;;;;5103880;28;20470;-61
2023/08/15 00:24:05;;;;;;;8.52;3.65;;;18.80;99.90;;;;;;5116448;28;20415;-61
2023/08/15 00:26:31;;;;;;;7.10;3.60;;;18.80;99.90;;;;;;5115970;28;20036;-61
2023/08/15 00:28:58;;;;;;;10.23;3.58;;;18.80;99.90;;;;;;5116032;28;20093;-60
2023/08/15 00:31:24;;;;;;;8.20;4.82;;;18.80;99.90;;;;;;5116109;28;20048;-61
2023/08/15 00:33:50;;;;;;;10.38;4.18;;;18.80;99.90;;;;;;5115801;28;20043;-61
2023/08/15 00:36:15;;;;;;;9.23;4.15;;;18.80;99.90;;;;;;5115598;28;20032;-61
2023/08/15 00:38:41;;;;;;;8.45;3.83;;;18.80;99.90;;;;;;5115604;28;20501;-61
2023/08/15 00:41:07;;;;;;;12.77;4.03;;;18.80;99.90;;;;;;5115247;28;20032;-62
2023/08/15 00:43:33;;;;;;;6.30;3.88;;;18.80;99.90;;;;;;5115545;28;20441;-61
2023/08/15 00:46:01;;;;;;;8.18;4.30;;;18.80;99.90;;;;;;5115512;27;20036;-61
2023/08/15 00:48:29;;;;;;;;;;;18.90;99.90;;;;;;5115885;28;20043;-62
2023/08/15 00:50:56;;;;;;;15.45;4.38;;;18.90;99.90;;;;;;5115488;28;19916;-62
2023/08/15 00:53:22;;;;;;;7.43;4.03;;;18.90;99.90;;;;;;5114249;28;20061;-62
2023/08/15 00:55:49;;;;;;;11.25;4.07;;;18.90;99.90;;;;;;5096399;28;20051;-61
2023/08/15 00:58:15;;;;;;;8.23;4.18;;;19.00;99.90;;;;;;5094762;28;20508;-61
2023/08/15 01:00:42;;;;;;;8.82;4.70;;;19.00;99.90;;;;;;5094744;28;20040;-61
2023/08/15 01:03:09;;;;;;;10.40;4.90;;;19.00;99.90;;;;;;5094838;28;20086;-61
2023/08/15 01:05:35;;;;;;;8.45;4.60;;;19.00;99.90;;;;;;5094634;28;20036;-62
2023/08/15 01:08:00;;;;;;;10.82;4.03;;;19.00;99.90;;;;;;5094714;28;20032;-61
2023/08/15 01:10:26;;;;;;;9.95;4.38;;;19.00;99.90;;;;;;5094454;28;20141;-62
2023/08/15 01:13:15;;;;;;;10.93;4.20;;;19.00;99.90;;;;;;5094629;28;20040;-61
2023/08/15 01:15:48;;;;;;;9.80;4.63;;;19.00;99.90;;;;;;5094509;28;20044;-61
2023/08/15 01:18:26;;;;;;;7.50;4.65;;;19.00;99.90;;;;;;5094506;28;20051;-62
2023/08/15 01:20:54;;;;;;;9.85;5.35;;;19.00;99.90;;;;;;5093152;28;20047;-62
2023/08/15 01:23:28;;;;;;;7.85;4.63;;;19.00;99.90;;;;;;5094281;28;20128;-62
2023/08/15 01:25:55;;;;;;;6.85;4.13;;;19.00;99.90;;;;;;5097896;28;20048;-61
2023/08/15 01:28:21;;;;;;;7.55;3.65;;;19.00;99.90;;;;;;5107113;28;20398;-61
2023/08/15 01:31:23;;;;;;;9.82;4.78;;;19.00;99.90;;;;;;5109176;28;20047;-62
2023/08/15 01:34:09;;;;;;;9.60;4.95;;;19.00;99.90;;;;;;5091986;28;20378;-61
2023/08/15 01:36:51;;;;;;;11.63;4.82;;;18.90;99.90;;;;;;5086745;28;20170;-62
2023/08/15 01:39:22;;;;;;;10.48;4.32;;;19.00;99.90;;;;;;5071668;28;20040;-61
2023/08/15 01:41:50;;;;;;;7.57;4.25;;;18.90;99.90;;;;;;5071668;28;20044;-61
2023/08/15 01:44:16;;;;;;;8.95;4.20;;;18.90;99.90;;;;;;5071637;28;20457;-61
2023/08/15 01:46:46;;;;;;;10.05;4.60;;;18.90;99.90;;;;;;5071545;28;20028;-62
2023/08/15 01:49:13;;;;;;;9.00;4.80;;;18.90;99.90;;;;;;5071312;28;20482;-61
2023/08/15 01:51:38;;;;;;;15.30;4.85;;;18.90;99.90;;;;;;5071294;28;20036;-61
2023/08/15 01:54:04;;;;;;;14.68;4.43;;;18.90;99.90;;;;;;5071253;28;20037;-61
2023/08/15 01:56:29;;;;;;;10.75;4.80;;;18.90;99.90;;;;;;5071177;28;20059;-61
2023/08/15 01:58:55;;;;;;;10.05;4.38;;;18.80;99.90;;;;;;5071497;28;20514;-61
2023/08/15 02:01:21;;;;;;;12.88;4.20;;;18.90;99.90;;;;;;5071509;28;20056;-60
2023/08/15 02:03:46;;;;;;;8.82;4.43;;;18.80;99.90;;;;;;5071137;28;20047;-60
2023/08/15 02:06:12;;;;;;;9.55;4.38;;;18.80;99.90;;;;;;5071245;28;20150;-61
2023/08/15 02:08:38;;;;;;;9.75;4.47;;;18.70;99.90;;;;;;5073557;28;20044;-60
2023/08/15 02:11:03;;;;;;;6.68;4.28;;;18.70;99.90;;;;;;5093751;28;20036;-61
2023/08/15 02:13:32;;;;;;;6.90;4.20;;;18.70;99.90;;;;;;5093331;28;20043;-60
2023/08/15 02:15:57;;;;;;;38.92;7.18;;;18.70;99.90;;;;;;5093407;28;20032;-61
2023/08/15 02:18:26;;;;;;;8.48;4.40;;;18.70;99.90;;;;;;5093242;28;20047;-60
2023/08/15 02:20:52;;;;;;;;;;;18.70;99.90;;;;;;5093529;28;20038;-61
2023/08/15 02:23:17;;;;;;;7.50;4.60;;;18.70;99.90;;;;;;5093247;28;20277;-61
2023/08/15 02:25:43;;;;;;;7.70;4.75;;;18.70;99.90;;;;;;5093305;28;20028;-60
2023/08/15 02:28:08;;;;;;;9.68;4.75;;;18.70;99.90;;;;;;5093250;28;20035;-60
2023/08/15 02:30:37;;;;;;;6.07;3.92;;;18.80;99.90;;;;;;5093027;28;20126;-60
2023/08/15 02:33:06;;;;;;;9.05;4.50;;;18.80;99.90;;;;;;5079790;28;20036;-60
2023/08/15 02:35:32;;;;;;;8.65;4.55;;;18.80;99.90;;;;;;5092894;28;20039;-61
2023/08/15 02:37:58;;;;;;;10.40;4.15;;;18.90;99.90;;;;;;5092981;28;20032;-61
2023/08/15 02:40:26;;;;;;;9.85;4.20;;;18.80;99.90;;;;;;5093024;28;20123;-61
2023/08/15 02:42:51;;;;;;;11.10;5.17;;;18.80;99.90;;;;;;5107545;28;20040;-61
2023/08/15 02:45:17;;;;;;;10.82;3.97;;;18.80;99.90;;;;;;5113197;28;20038;-61
2023/08/15 02:47:44;;;;;;;7.90;4.50;;;18.80;99.90;;;;;;5113143;28;20574;-62
2023/08/15 02:50:11;;;;;;;8.68;4.43;;;18.80;99.90;;;;;;5102261;27;20078;-61
2023/08/15 02:52:36;;;;;;;13.05;5.70;;;18.80;99.90;;;;;;5109995;28;20039;-61
2023/08/15 02:55:02;;;;;;;7.70;4.47;;;18.80;99.90;;;;;;5113180;27;20077;-61
2023/08/15 02:57:28;;;;;;;7.38;4.60;;;18.70;99.90;;;;;;5113167;28;20066;-60
2023/08/15 02:59:54;;;;;;;7.90;5.03;;;18.80;99.90;;;;;;5112974;27;20050;-61
2023/08/15 03:02:20;;;;;;;9.30;5.03;;;18.70;99.90;;;;;;5112844;28;20393;-61
2023/08/15 03:04:45;;;;;;;10.48;4.75;;;18.70;99.90;;;;;;5112896;28;20044;-62
2023/08/15 03:07:11;;;;;;;9.45;6.50;;;18.70;99.90;;;;;;5112810;28;20068;-61
2023/08/15 03:09:37;;;;;;;11.23;7.13;;;18.70;99.90;;;;;;5111885;28;20805;-62
2023/08/15 03:12:03;;;;;;;10.93;7.18;;;18.70;99.90;;;;;;5112983;28;20039;-61
2023/08/15 03:14:29;;;;;;;12.98;7.10;;;18.60;99.90;;;;;;5112365;28;20092;-61
2023/08/15 03:16:55;;;;;;;10.93;6.88;;;18.60;99.90;;;;;;5112564;28;20043;-62
2023/08/15 03:19:20;;;;;;;13.73;7.32;;;18.60;99.90;;;;;;5112401;28;20045;-61
2023/08/15 03:21:46;;;;;;;12.05;7.70;;;18.60;99.90;;;;;;5112568;28;20115;-61
2023/08/15 03:24:12;;;;;;;13.25;7.63;;;18.50;99.90;;;;;;5112555;28;20035;-62
2023/08/15 03:26:38;;;;;;;12.52;7.55;;;18.60;99.90;;;;;;5112437;28;20028;-61
2023/08/15 03:29:04;;;;;;;10.65;7.10;;;18.60;99.90;;;;;;5096367;28;20082;-62
2023/08/15 03:31:30;;;;;;;14.75;8.52;;;18.60;99.90;;;;;;5092084;28;20072;-62
2023/08/15 03:33:56;;;;;;;13.50;8.68;;;18.60;99.90;;;;;;5091864;28;20063;-62
2023/08/15 03:36:22;;;;;;;10.45;7.43;;;18.50;99.90;;;;;;5091789;28;20043;-62
2023/08/15 03:38:48;;;;;;;17.25;7.75;;;18.50;99.90;;;;;;5091718;28;20449;-62
2023/08/15 03:41:13;;;;;;;13.15;8.23;;;18.50;99.90;;;;;;5091728;28;20075;-61
2023/08/15 03:43:39;;;;;;;12.38;8.27;;;18.50;99.90;;;;;;5090823;28;20078;-62
2023/08/15 03:46:05;;;;;;;12.32;8.05;;;18.50;99.90;;;;;;5090316;28;20059;-60
2023/08/15 03:48:31;;;;;;;13.27;7.82;;;18.50;99.90;;;;;;5091763;28;20043;-61
2023/08/15 03:50:59;;;;;;;12.77;7.85;;;18.50;99.90;;;;;;5091737;28;20036;-62
2023/08/15 03:53:26;;;;;;;13.47;8.70;;;18.50;99.90;;;;;;5102904;28;20035;-62
2023/08/15 03:55:53;;;;;;;10.75;7.93;;;18.50;99.90;;;;;;5111983;28;20100;-61
2023/08/15 03:58:20;;;;;;;14.05;9.35;;;18.50;99.90;;;;;;5110732;28;20023;-61
2023/08/15 04:00:47;;;;;;;11.32;7.88;;;18.50;99.90;;;;;;5111817;28;20067;-62
2023/08/15 04:03:13;;;;;;;11.30;7.45;;;18.50;99.90;;;;;;5111997;28;20044;-62
2023/08/15 04:05:38;;;;;;;11.90;8.43;;;18.50;99.90;;;;;;5111881;28;20050;-62
2023/08/15 04:08:05;;;;;;;14.20;8.90;;;18.40;99.90;;;;;;5112364;28;20044;-62
2023/08/15 04:10:30;;;;;;;13.40;8.65;;;18.40;99.90;;;;;;5112047;28;20407;-62
2023/08/15 04:12:57;;;;;;;13.45;9.13;;;18.40;99.90;;;;;;5111828;28;20036;-61
2023/08/15 04:15:23;;;;;;;13.38;8.80;;;18.40;99.90;;;;;;5111790;28;20036;-61
2023/08/15 04:17:48;;;;;;;12.48;9.05;;;18.40;99.90;;;;;;5111746;28;20050;-61
2023/08/15 04:20:14;;;;;;;16.00;9.52;;;18.30;99.90;;;;;;5110500;28;20482;-61
2023/08/15 04:22:40;;;;;;;13.60;8.88;;;18.30;99.90;;;;;;5111525;28;20047;-61
2023/08/15 04:25:09;;;;;;;14.02;8.90;;;18.40;99.90;;;;;;5111998;28;20111;-60
2023/08/15 04:27:37;;;;;;;14.88;9.70;;;18.40;99.90;;;;;;5108631;28;20036;-60
2023/08/15 04:30:05;;;;;;;18.10;10.25;;;18.40;99.90;;;;;;5090055;28;20048;-60
2023/08/15 04:32:31;;;;;;;11.40;9.02;;;18.40;99.90;;;;;;5091327;28;20434;-60
2023/08/15 04:34:57;;;;;;;16.35;10.00;;;18.40;99.90;;;;;;5091422;28;20046;-60
2023/08/15 04:37:22;;;;;;;13.52;9.85;;;18.30;99.90;;;;;;5073625;28;20048;-60
2023/08/15 04:39:48;;;;;;;11.02;8.40;;;18.40;99.90;;;;;;5077336;28;20134;-60
2023/08/15 04:42:14;;;;;;;12.25;9.32;;;18.40;99.90;;;;;;5091467;28;20097;-60
2023/08/15 04:44:39;;;;;;;15.60;10.38;;;18.40;99.90;;;;;;5091407;28;20040;-60
2023/08/15 04:47:05;;;;;;;17.23;9.45;;;18.40;99.90;;;;;;5091771;28;20032;-60
2023/08/15 04:49:31;;;;;;;14.23;10.15;;;18.40;99.90;;;;;;5091570;28;20040;-61
2023/08/15 04:51:56;;;;;;;15.93;10.55;;;18.50;99.90;;;;;;5091843;28;20063;-60
2023/08/15 04:54:22;;;;;;;13.85;9.77;;;18.50;99.90;;;;;;5091587;28;20071;-60
2023/08/15 04:56:48;;;;;;;14.30;10.35;;;18.50;99.90;;;;;;5091532;28;20418;-61
2023/08/15 04:59:15;;;;;;;15.15;10.57;;;18.40;99.90;;;;;;5091308;28;20494;-60
2023/08/15 05:01:40;;;;;;;16.15;10.82;;;18.40;99.90;;;;;;5091102;28;20547;-61
2023/08/15 05:04:06;;;;;;;43.90;11.73;;;18.40;99.90;;;;;;5099515;28;20039;-61
2023/08/15 05:06:32;;;;;;;34.92;11.75;;;18.40;99.90;;;;;;5113896;28;20090;-62
2023/08/15 05:08:58;;;;;;;17.77;11.15;;;18.40;99.90;;;;;;5115821;28;20031;-60
2023/08/15 05:11:24;;;;;;;18.98;10.63;;;18.30;99.90;;;;;;5114301;27;20583;-61
2023/08/15 05:13:49;;;;;;;15.23;10.25;;;18.30;99.90;;;;;;5115350;28;20036;-61
2023/08/15 05:16:15;;;;;;;22.38;11.25;;;18.30;99.90;;;;;;5114581;28;20036;-61
2023/08/15 05:18:42;;;;;;;20.90;10.85;;;18.30;99.90;;;;;;5111131;28;20359;-62
2023/08/15 05:21:07;;;;;;;15.15;10.35;;;18.30;99.90;;;;;;5108640;28;20507;-62
2023/08/15 05:23:33;;;;;;;17.88;10.50;;;18.20;99.90;;;;;;5115073;28;20039;-61
2023/08/15 05:25:58;;;;;;;23.33;11.63;;;18.30;99.90;;;;;;5115494;28;20115;-61
2023/08/15 05:28:24;;;;;;;16.67;9.45;;;18.30;99.90;;;;;;5104458;28;20600;-61
2023/08/15 05:30:50;;;;;;;19.00;10.05;;;18.30;99.90;;;;;;5094571;28;20067;-61
2023/08/15 05:33:15;;;;;;;15.73;9.52;;;18.20;99.90;;;;;;5094266;28;20051;-61
2023/08/15 05:35:42;;;;;;;14.75;9.75;;;18.30;99.90;;;;;;5094409;28;20127;-61
2023/08/15 05:38:07;;;;;;;19.80;10.80;;;18.30;99.90;;;;;;5094440;28;20079;-61
2023/08/15 05:40:33;;;;;;;13.98;9.52;;;18.30;99.90;;;;;;5094435;28;20470;-61
2023/08/15 05:42:59;;;;;;;19.13;9.55;;;18.30;99.90;;;;;;5094254;28;20040;-60
2023/08/15 05:45:24;;;;;;;13.77;9.77;;;18.40;99.90;;;;;;5094439;28;20385;-61
2023/08/15 05:47:50;;;;;;;14.68;9.25;;;18.40;99.90;;;;;;5094422;28;20470;-61
2023/08/15 05:50:16;;;;;;;13.85;9.07;;;18.50;99.90;;;;;;5094668;28;20036;-60
2023/08/15 05:52:42;;;;;;;16.02;8.88;;;18.40;99.90;;;;;;5098553;28;20130;-60
2023/08/15 05:55:08;;;;;;;15.45;8.90;;;18.50;99.90;;;;;;5114332;28;20042;-60
2023/08/15 05:57:33;;;;;;;9.80;8.43;;;18.50;99.90;;;;;;5114480;28;20047;-60
2023/08/15 05:59:59;;;;;;;15.15;8.75;;;18.50;99.90;;;;;;5107100;27;20600;-60
2023/08/15 06:02:25;;;;;;;14.10;8.25;;;18.50;99.90;;;;;;5108611;28;20044;-60
2023/08/15 06:04:51;;;;;;;15.85;8.63;;;18.60;99.90;;;;;;5114302;28;20040;-61
2023/08/15 06:07:16;;;;;;;15.10;7.82;;;18.50;99.90;;;;;;5114314;28;20035;-60
2023/08/15 06:09:42;;;;;;;15.30;7.30;;;18.50;99.90;;;;;;5114139;28;20037;-60
2023/08/15 06:12:09;;;;;;;15.55;8.07;;;18.50;99.90;;;;;;5114016;28;20032;-60
2023/08/15 06:14:36;;;;;;;13.73;6.97;;;18.50;99.90;;;;;;5113911;28;20063;-61
2023/08/15 06:17:02;;;;;;;27.13;8.88;;;18.50;99.90;;;;;;5113102;28;20070;-61
2023/08/15 06:19:28;;;;;;;17.25;7.93;;;18.50;99.90;;;;;;5101589;28;20474;-61
2023/08/15 06:21:53;;;;;;;10.38;7.18;;;18.50;99.90;;;;;;5112425;28;20044;-61
2023/08/15 06:24:19;;;;;;;11.55;7.82;;;18.60;99.90;;;;;;5113717;28;20032;-60
2023/08/15 06:26:45;;;;;;;12.25;7.03;;;18.70;99.90;;;;;;5113840;27;20435;-61
2023/08/15 06:29:10;;;;;;;11.00;5.55;;;18.80;99.90;;;;;;5096694;28;20047;-61
2023/08/15 06:31:36;;;;;;;14.68;7.55;;;19.00;99.90;;;;;;5093319;28;20078;-61
2023/08/15 06:34:02;;;;;;;13.50;6.85;;;19.30;99.90;;;;;;5093460;28;20490;-61
2023/08/15 06:36:28;;;;;;;12.50;6.97;;;19.30;99.90;;;;;;5093574;28;20085;-60
2023/08/15 06:38:55;;;;;;;10.32;7.15;;;19.30;99.90;;;;;;5093533;28;20071;-60
2023/08/15 06:41:20;;;;;;;14.82;6.32;;;19.30;99.90;;;;;;5093660;28;20040;-60
2023/08/15 06:43:46;;;;;;;14.82;7.18;;;19.30;99.90;;;;;;5093156;28;20371;-60
2023/08/15 06:46:12;;;;;;;12.45;6.80;;;19.30;99.90;;;;;;5093067;28;20491;-62
2023/08/15 06:48:38;;;;;;;12.98;6.82;;;19.40;99.90;;;;;;5093321;28;20028;-61
2023/08/15 06:51:04;;;;;;;18.17;7.03;;;19.60;99.90;;;;;;5093277;28;20405;-61
2023/08/15 06:53:32;;;;;;;11.40;6.60;;;19.90;99.90;;;;;;5093919;28;20036;-61
2023/08/15 06:55:58;;;;;;;;;;;20.10;99.90;;;;;;5094726;28;20036;-62
2023/08/15 06:58:25;;;;;;;11.57;6.57;;;20.40;99.90;;;;;;5093400;28;19998;-60
2023/08/15 07:00:51;;;;;;;11.35;6.40;;;20.70;99.90;;;;;;5094271;28;20036;-60
2023/08/15 07:03:18;;;;;;;16.30;5.55;;;20.90;99.90;;;;;;5093552;28;20039;-60
2023/08/15 07:05:44;;;;;;;18.73;6.07;;;21.10;99.90;;;;;;5094606;28;20129;-60
2023/08/15 07:08:12;;;;;;;14.00;7.10;;;21.20;99.90;;;;;;5093710;28;20036;-60
2023/08/15 07:10:38;;;;;;;15.27;6.25;;;21.30;99.90;;;;;;5092642;28;20203;-61
2023/08/15 07:13:04;;;;;;;13.73;5.82;;;21.20;99.90;;;;;;5093304;28;20118;-59
2023/08/15 07:15:30;;;;;;;14.93;5.03;;;21.30;99.90;;;;;;5091858;28;20036;-61
2023/08/15 07:17:56;;;;;;;11.95;6.05;;;21.30;99.90;;;;;;5093154;28;20043;-61
2023/08/15 07:20:22;;;;;;;16.17;5.15;;;21.60;99.90;;;;;;5093549;28;20467;-60
2023/08/15 07:22:48;;;;;;;17.52;6.07;;;21.70;99.90;;;;;;5093292;28;20044;-59
2023/08/15 07:25:14;;;;;;;11.27;4.55;;;22.00;99.90;;;;;;5092233;28;20036;-60
2023/08/15 07:27:39;;;;;;;15.50;4.35;;;22.30;99.90;;;;;;5093818;28;20107;-60
2023/08/15 07:30:06;;;;;;;11.75;4.13;;;22.30;99.90;;;;;;5093283;28;20417;-60
2023/08/15 07:32:36;;;;;;;35.53;7.07;;;22.10;99.90;;;;;;5091096;28;20048;-60
2023/08/15 07:35:03;;;;;;;13.55;3.97;;;22.30;99.90;;;;;;5093185;28;20058;-61
2023/08/15 07:37:29;;;;;;;16.13;4.50;;;22.20;99.90;;;;;;5092513;28;20055;-61
2023/08/15 07:40:07;;;;;;;16.00;3.83;;;22.60;99.90;;;;;;5107499;28;20035;-60
2023/08/15 07:42:34;;;;;;;13.88;3.90;;;22.90;99.90;;;;;;5113524;28;20509;-60
2023/08/15 07:45:00;;;;;;;12.60;4.00;;;22.90;99.90;;;;;;5112967;28;20036;-61
2023/08/15 07:47:26;;;;;;;13.05;3.35;;;23.00;99.90;;;;;;5113261;28;20410;-60
2023/08/15 07:50:13;;;;;;;12.77;4.20;;;23.30;99.90;;;;;;5113072;28;20115;-60
2023/08/15 07:52:39;;;;;;;8.65;3.15;;;23.50;99.90;;;;;;5112946;28;20039;-61
2023/08/15 07:55:05;;;;;;;13.32;4.57;;;23.50;99.90;;;;;;5113176;28;20118;-60
2023/08/15 07:57:31;;;;;;;16.35;4.45;;;23.50;99.90;;;;;;5102397;28;20036;-61
2023/08/15 07:59:57;;;;;;;8.07;2.63;;;23.40;99.90;;;;;;5111692;28;20042;-61
2023/08/15 08:02:23;;;;;;;10.80;2.90;;;23.30;99.90;;;;;;5112617;28;20039;-60
2023/08/15 08:04:49;;;;;;;10.07;2.90;;;23.40;99.90;;;;;;5085346;28;20111;-61
2023/08/15 08:07:14;;;;;;;8.98;2.47;;;23.70;99.90;;;;;;5113092;28;20115;-62
2023/08/15 08:09:40;;;;;;;8.02;2.50;;;23.90;99.90;;;;;;5106539;28;20453;-61
2023/08/15 08:12:06;;;;;;;7.50;2.35;;;24.00;99.90;;;;;;5113450;28;20389;-61
2023/08/15 08:14:31;;;;;;;9.15;2.45;;;24.20;99.90;;;;;;5113036;28;20035;-61
2023/08/15 08:16:57;;;;;;;6.47;2.53;;;24.40;99.90;;;;;;5113067;28;20393;-61
2023/08/15 08:19:23;;;;;;;11.40;3.00;;;24.50;99.90;;;;;;5098869;28;20461;-62
2023/08/15 08:21:48;;;;;;;8.48;2.72;;;24.60;99.90;;;;;;5083399;28;20046;-61
2023/08/15 08:24:14;;;;;;;6.95;2.10;;;24.40;99.90;;;;;;5100860;28;20040;-61
2023/08/15 08:26:40;;;;;;;10.80;2.63;;;24.60;99.90;;;;;;5110886;28;20031;-62
2023/08/15 08:29:06;;;;;;;7.10;2.10;;;24.90;99.90;;;;;;5096991;28;20032;-61
2023/08/15 08:31:32;;;;;;;11.27;2.38;;;25.20;99.90;;;;;;5092663;28;20054;-61
2023/08/15 08:33:57;;;;;;;8.27;1.80;;;25.30;99.90;;;;;;5092999;28;20083;-61
2023/08/15 08:36:23;;;;;;;7.43;2.08;;;25.70;99.90;;;;;;5092315;28;20036;-61
2023/08/15 08:38:48;;;;;;;5.82;1.70;;;25.60;99.90;;;;;;5092957;28;20086;-62
2023/08/15 08:41:14;;;;;;;5.07;1.67;;;25.70;99.90;;;;;;5094291;28;20024;-61
2023/08/15 08:43:40;;;;;;;4.15;1.33;;;25.60;99.90;;;;;;5095419;28;20093;-62
2023/08/15 08:46:08;;;;;;;10.20;1.90;;;25.60;99.90;;;;;;5096098;28;20040;-60
2023/08/15 08:48:35;;;;;;;8.02;1.85;;;25.50;99.90;;;;;;5095274;28;20124;-61
2023/08/15 08:51:01;;;;;;;5.35;1.90;;;26.40;99.90;;;;;;5095124;28;20371;-62
2023/08/15 08:53:27;;;;;;;7.72;1.80;;;27.20;99.90;;;;;;5094429;28;20055;-63
2023/08/15 08:55:53;;;;;;;8.48;2.00;;;27.90;99.90;;;;;;5094867;28;20406;-63
2023/08/15 08:58:19;;;;;;;6.53;1.67;;;29.00;99.90;;;;;;5093889;28;20054;-63
2023/08/15 09:00:45;;;;;;;7.70;1.85;;;29.70;99.90;;;;;;5115029;28;20473;-62
2023/08/15 09:03:11;;;;;;;7.78;1.65;;;29.50;99.90;;;;;;5115305;28;20040;-62
2023/08/15 09:05:40;;;;;;;9.10;1.58;;;29.40;99.90;;;;;;5115462;28;20118;-62
2023/08/15 09:08:06;;;;;;;5.65;1.83;;;29.50;99.90;;;;;;5114283;28;20131;-62
2023/08/15 09:10:32;;;;;;;4.10;1.58;;;29.80;99.90;;;;;;5115162;28;20036;-62
2023/08/15 09:12:59;;;;;;;6.78;1.60;;;29.90;99.90;;;;;;5115354;28;20092;-63
2023/08/15 09:15:25;;;;;;;7.00;1.65;;;29.90;99.90;;;;;;5115144;28;20415;-62
2023/08/15 09:17:58;;;;;;;7.10;1.40;;;30.40;99.90;;;;;;5112104;28;20367;-61
2023/08/15 09:20:24;;;;;;;5.63;2.20;;;30.90;99.90;;;;;;5113360;28;20035;-63
2023/08/15 09:22:51;;;;;;;5.80;1.35;;;30.90;99.90;;;;;;5114047;28;20092;-62
2023/08/15 09:25:17;;;;;;;6.50;1.58;;;31.50;99.90;;;;;;5114005;28;20070;-62
2023/08/15 09:27:44;;;;;;;6.43;2.00;;;31.40;99.90;;;;;;5110219;28;20138;-63
2023/08/15 09:30:15;;;;;;;8.48;2.08;;;31.60;99.90;;;;;;5093315;28;20567;-64
2023/08/15 09:32:41;;;;;;;4.50;1.40;;;30.80;99.90;;;;;;5094320;28;20054;-63
2023/08/15 09:35:12;;;;;;;7.75;1.80;;;29.70;99.90;;;;;;5093332;28;20105;-61
2023/08/15 09:37:49;;;;;;;5.50;1.70;;;29.70;99.90;;;;;;5094370;28;20055;-63
2023/08/15 09:40:20;;;;;;;6.85;1.77;;;29.20;99.90;;;;;;5094390;28;20032;-62
2023/08/15 09:42:46;;;;;;;9.43;2.03;;;29.30;99.90;;;;;;5093931;28;20550;-62
2023/08/15 09:45:15;;;;;;;7.28;1.70;;;29.50;99.90;;;;;;5094894;28;20032;-62
2023/08/15 09:47:42;;;;;;;7.18;1.77;;;29.90;99.90;;;;;;5094131;28;20031;-62
2023/08/15 09:50:10;;;;;;;6.57;1.60;;;30.20;99.90;;;;;;5094248;28;20032;-63
2023/08/15 09:52:39;;;;;;;;;;;29.70;99.90;;;;;;5094386;28;20062;-62
2023/08/15 09:55:10;;;;;;;3.40;1.20;;;28.70;99.90;;;;;;5093958;28;20362;-62
2023/08/15 09:57:37;;;;;;;6.45;1.13;;;29.10;99.90;;;;;;5094523;28;20043;-62
2023/08/15 10:00:04;;;;;;;3.25;1.23;;;29.10;99.90;;;;;;5093972;28;20032;-62
2023/08/15 10:02:30;;;;;;;3.47;0.85;;;29.40;99.90;;;;;;5093943;28;20028;-63
2023/08/15 10:05:06;;;;;;;6.32;1.60;;;29.80;99.90;;;;;;5093805;28;20119;-62
2023/08/15 10:07:33;;;;;;;6.90;1.42;;;29.90;99.90;;;;;;5093800;28;20114;-63
2023/08/15 10:10:03;;;;;;;5.22;1.35;;;30.50;99.90;;;;;;5093827;28;20075;-62
2023/08/15 10:12:30;;;;;;;9.40;1.60;;;30.60;99.90;;;;;;5093895;28;20051;-62
2023/08/15 10:14:57;;;;;;;4.27;1.40;;;30.10;99.90;;;;;;5093787;28;20405;-62
2023/08/15 10:17:25;;;;;;;3.75;1.52;;;30.00;99.90;;;;;;5093702;28;20039;-61
2023/08/15 10:19:50;;;;;;;6.60;1.88;;;30.50;99.90;;;;;;5093622;28;20036;-63
2023/08/15 10:22:18;;;;;;;5.63;1.30;;;30.20;99.90;;;;;;5093361;28;20036;-63
2023/08/15 10:24:44;;;;;;;3.55;1.10;;;30.60;99.90;;;;;;5093307;28;20048;-62
2023/08/15 10:27:11;;;;;;;3.95;1.30;;;30.10;99.90;;;;;;5093139;28;20048;-62
2023/08/15 10:29:57;;;;;;;4.15;1.40;;;30.10;99.90;;;;;;5079553;28;20069;-62
2023/08/15 10:32:25;;;;;;;6.07;1.40;;;29.80;99.90;;;;;;5093112;28;20109;-63
2023/08/15 10:34:58;;;;;;;4.15;1.35;;;29.90;99.90;;;;;;5093340;28;20044;-62
2023/08/15 10:37:31;;;;;;;2.95;1.00;;;30.30;99.90;;;;;;5093257;28;20109;-63
2023/08/15 10:40:11;;;;;;;4.68;1.35;;;30.40;99.90;;;;;;5091787;28;20044;-63
2023/08/15 10:43:02;;;;;;;3.40;1.02;;;30.70;99.90;;;;;;5090230;28;20051;-63
2023/08/15 10:45:38;;;;;;;5.40;1.52;;;30.50;99.90;;;;;;5101683;28;20027;-63
2023/08/15 10:48:04;;;;;;;5.72;1.38;;;30.50;99.90;;;;;;5109516;28;20047;-63
2023/08/15 10:50:30;;;;;;;4.00;1.33;;;30.80;99.90;;;;;;5113293;28;20035;-62
2023/08/15 10:53:01;;;;;;;6.15;1.58;;;30.90;99.90;;;;;;5109206;28;20138;-63
2023/08/15 10:55:28;;;;;;;6.32;1.45;;;30.70;99.90;;;;;;5089650;28;20050;-62
2023/08/15 10:57:57;;;;;;;3.33;1.40;;;30.20;99.90;;;;;;5109025;28;20119;-62
2023/08/15 11:00:23;;;;;;;4.20;1.25;;;30.20;99.90;;;;;;5101965;28;20561;-62
2023/08/15 11:02:49;;;;;;;4.97;1.60;;;29.40;99.90;;;;;;5113038;28;20816;-62
2023/08/15 11:05:15;;;;;;;5.45;1.52;;;29.30;99.90;;;;;;5107030;28;20031;-62
2023/08/15 11:07:41;;;;;;;4.97;1.50;;;29.20;99.90;;;;;;5096741;28;20115;-62
2023/08/15 11:10:16;;;;;;;5.88;1.15;;;28.80;99.90;;;;;;5107000;28;20051;-63
2023/08/15 11:12:49;;;;;;;5.18;1.20;;;29.30;99.90;;;;;;5095268;28;20036;-62
2023/08/15 11:15:18;;;;;;;4.82;1.42;;;29.90;99.90;;;;;;5086426;28;20094;-62
2023/08/15 11:17:47;;;;;;;4.72;1.50;;;30.50;99.90;;;;;;5107298;28;20055;-60
2023/08/15 11:20:13;;;;;;;5.85;1.40;;;30.30;99.90;;;;;;5112018;28;20038;-60
2023/08/15 11:22:39;;;;;;;5.13;1.58;;;29.80;99.90;;;;;;5107872;28;20040;-60
2023/08/15 11:25:08;;;;;;;4.75;1.38;;;29.40;99.90;;;;;;5108799;28;20032;-61
2023/08/15 11:27:41;;;;;;;7.25;1.50;;;29.20;99.90;;;;;;5099376;28;20040;-60
2023/08/15 11:30:08;;;;;;;6.97;1.70;;;28.50;99.90;;;;;;5092824;28;20745;-60
2023/08/15 11:32:37;;;;;;;6.10;1.53;;;28.30;99.90;;;;;;5090877;28;20150;-60
2023/08/15 11:35:03;;;;;;;4.95;2.08;;;28.20;99.90;;;;;;5092373;28;20282;-60
2023/08/15 11:37:28;;;;;;;5.07;1.33;;;28.30;99.90;;;;;;5090565;28;20087;-60
2023/08/15 11:39:55;;;;;;;4.88;1.77;;;28.40;99.90;;;;;;5092282;28;20068;-61
2023/08/15 11:42:21;;;;;;;6.32;1.58;;;28.40;99.90;;;;;;5082501;28;20121;-61
2023/08/15 11:44:59;;;;;;;5.07;2.00;;;28.30;99.90;;;;;;5090963;28;20028;-60
2023/08/15 11:47:25;;;;;;;6.07;1.63;;;28.40;99.90;;;;;;5092049;28;20032;-60
2023/08/15 11:49:51;;;;;;;5.25;1.30;;;28.50;99.90;;;;;;5091815;28;20042;-61
2023/08/15 11:52:18;;;;;;;4.47;1.60;;;28.50;99.90;;;;;;5091792;28;20048;-60
2023/08/15 11:54:46;;;;;;;3.75;1.33;;;28.10;99.90;;;;;;5091788;28;20048;-60
2023/08/15 11:57:12;;;;;;;3.65;1.50;;;27.90;99.90;;;;;;5091816;28;20101;-64
2023/08/15 11:59:38;;;;;;;6.25;1.67;;;27.80;99.90;;;;;;5091651;28;20050;-59
2023/08/15 12:02:03;;;;;;;6.22;2.88;;;27.70;99.90;;;;;;5091957;28;20111;-60
2023/08/15 12:04:35;;;;;;;8.55;2.35;;;27.40;99.90;;;;;;5091528;28;20389;-59
2023/08/15 12:07:01;;;;;;;3.58;1.52;;;27.20;99.90;;;;;;5077882;28;20032;-59
2023/08/15 12:09:28;;;;;;;9.82;1.55;;;27.70;99.90;;;;;;5091575;28;20071;-61
2023/08/15 12:11:55;;;;;;;3.63;1.50;;;27.70;99.90;;;;;;5091561;28;20115;-60
2023/08/15 12:14:22;;;;;;;5.55;1.50;;;27.50;99.90;;;;;;5092030;28;20048;-60
2023/08/15 12:16:48;;;;;;;5.57;1.80;;;27.30;99.90;;;;;;5094460;28;20089;-60
2023/08/15 12:19:14;;;;;;;9.45;1.77;;;27.20;99.90;;;;;;5095634;28;20032;-59
2023/08/15 12:21:40;;;;;;;6.03;1.85;;;27.10;99.90;;;;;;5095877;28;20126;-59
2023/08/15 12:24:06;;;;;;;10.20;2.00;;;27.20;99.90;;;;;;5095767;28;20128;-59
2023/08/15 12:26:31;;;;;;;5.40;1.30;;;27.20;99.90;;;;;;5094678;28;20043;-61
2023/08/15 12:28:58;;;;;;;3.92;1.67;;;26.90;99.90;;;;;;5095447;28;20043;-63
2023/08/15 12:31:23;;;;;;;6.40;1.65;;;26.60;99.90;;;;;;5095599;28;20130;-60
2023/08/15 12:33:49;;;;;;;4.63;1.50;;;26.40;99.90;;;;;;5096003;28;20240;-60
2023/08/15 12:36:15;;;;;;;3.30;1.80;;;26.30;99.90;;;;;;5095778;28;20036;-60
2023/08/15 12:38:42;;;;;;;5.30;1.52;;;26.20;99.90;;;;;;5094507;28;20052;-61
2023/08/15 12:41:08;;;;;;;7.40;2.03;;;26.20;99.90;;;;;;5095243;28;20115;-62
2023/08/15 12:43:34;;;;;;;7.03;1.77;;;26.30;99.90;;;;;;5095412;28;20061;-61